Latest Weather Observations for Noonamah

IDD60901

Issued at 5:41 pm CST Sunday 4 December 2016 (issued every 10 minutes, with the page automatically refreshed every 10 minutes)

About weather observations | Map of Darwin area stations | Latest observations for Darwin area | Other Formats
Station Details ID: 014314 Name: NOONAMAH AIRSTRIP Lat: -12.61 Lon: 131.05 Height: 17.5 m
Data from the previous 72 hours. | See also: Recent months at Noonamah
Date/Time
CST
Temp
°C
App
Temp
°C
Dew
Point
°C
Rel
Hum
%
Delta-T
°C
Wind Press
QNH
hPa
Press
MSL
hPa
Rain since
9am
mm
Dir  Spd
km/h
Gust
km/h
Spd
kts
Gust
kts
04/05:30pm 34.0 35.8 19.6 42 9.6 NE 9 15 5 8 1006.2 1006.0 0.0
04/05:00pm 34.3 36.0 21.0 45 9.0 NNE 13 20 7 11 1006.1 1005.9 0.0
04/04:30pm 35.1 37.2 20.2 41 10.0 NE 9 13 5 7 1006.0 1005.8 0.0
04/04:00pm 35.5 37.8 20.6 41 10.0 ENE 9 15 5 8 1006.3 1006.1 0.0
04/03:30pm 35.2 38.3 20.3 41 10.0 SE 4 7 2 4 1006.7 1006.5 0.0
04/03:00pm 35.3 38.3 21.2 44 9.6 NE 7 11 4 6 1006.9 1006.7 0.0
04/02:30pm 34.8 38.1 21.8 46 8.9 E 7 13 4 7 1007.3 1007.1 0.0
04/02:00pm 35.4 38.2 21.6 44 9.4 NE 9 15 5 8 1007.7 1007.5 0.0
04/01:30pm 35.0 36.5 20.5 42 9.8 E 13 26 7 14 1008.2 1008.0 0.0
04/01:00pm 34.2 37.0 21.6 47 8.6 E 9 17 5 9 1008.5 1008.3 0.0
04/12:30pm 33.9 36.4 21.7 49 8.3 ENE 11 19 6 10 1008.9 1008.7 0.0
04/12:00pm 34.0 36.9 22.4 50 8.0 E 11 20 6 11 1009.2 1009.0 0.0
04/11:30am 32.6 35.9 21.8 53 7.3 E 7 17 4 9 1009.6 1009.4 0.0
04/11:00am 32.5 35.7 21.7 53 7.3 E 7 15 4 8 1009.9 1009.7 0.0
04/10:30am 32.2 35.8 22.3 56 6.8 E 7 13 4 7 1010.1 1009.9 0.0
04/10:00am 31.8 34.9 22.2 56 6.5 E 9 19 5 10 1010.3 1010.1 0.0
04/09:30am 30.4 34.4 23.8 68 4.6 ESE 9 15 5 8 1010.4 1010.2 0.0
04/09:00am 30.5 35.6 24.6 70 4.1 E 6 9 3 5 1010.5 1010.3 0.2
04/08:30am 29.5 33.9 24.4 74 3.6 SE 9 11 5 6 1010.5 1010.3 0.2
04/08:00am 28.3 33.2 24.7 81 2.5 ESE 7 11 4 6 1010.5 1010.3 0.2
04/07:30am 27.3 32.6 24.9 87 1.7 SE 6 9 3 5 1010.5 1010.3 0.2
04/07:00am 25.9 31.5 24.9 94 0.7 ESE 4 6 2 3 1010.2 1010.0 0.2
04/06:30am 25.2 30.6 24.5 96 0.5 SE 4 6 2 3 1009.8 1009.6 0.2
04/06:00am 25.0 30.3 24.3 96 0.5 SE 4 4 2 2 1009.3 1009.1 0.2
04/05:30am 24.9 30.7 24.0 95 0.6 CALM 0 0 0 0 1008.9 1008.7 0.2
04/05:00am 25.0 30.9 24.1 95 0.6 CALM 0 0 0 0 1008.5 1008.3 0.2
04/04:30am 25.1 31.1 24.2 95 0.6 CALM 0 0 0 0 1008.2 1008.0 0.2
04/04:00am 25.2 31.2 24.2 94 0.7 CALM 0 0 0 0 1008.1 1007.9 0.2
04/03:30am 25.4 31.5 24.4 94 0.7 CALM 0 0 0 0 1008.0 1007.8 0.2
04/03:00am 25.6 31.5 24.7 95 0.6 SE 2 2 1 1 1008.0 1007.8 0.2
04/02:30am 25.6 31.1 24.6 94 0.7 SSE 4 6 2 3 1008.1 1007.9 0.2
04/02:00am 25.8 32.2 24.9 95 0.6 CALM 0 0 0 0 1008.3 1008.1 0.2
04/01:30am 25.8 32.1 24.8 94 0.7 CALM 0 0 0 0 1008.8 1008.6 0.2
04/01:00am 25.9 32.3 24.9 94 0.7 CALM 0 0 0 0 1009.2 1009.0 0.2
04/12:30am 26.0 32.5 25.0 94 0.7 CALM 0 0 0 0 1009.6 1009.4 0.2
04/12:00am 26.1 32.5 24.9 93 0.8 CALM 0 0 0 0 1010.0 1009.8 0.2
 
Date/Time
CST
Temp
°C
App
Temp
°C
Dew
Point
°C
Rel
Hum
%
Delta-T
°C
Wind Press
QNH
hPa
Press
MSL
hPa
Rain since
9am
mm
Dir  Spd
km/h
Gust
km/h
Spd
kts
Gust
kts
03/11:30pm 26.3 32.8 25.1 93 0.8 CALM 0 0 0 0 1010.2 1010.0 0.2
03/11:00pm 26.6 33.3 25.4 93 0.8 CALM 0 0 0 0 1010.5 1010.3 0.2
03/10:30pm 26.8 33.6 25.6 93 0.8 CALM 0 0 0 0 1010.4 1010.2 0.2
03/10:00pm 27.1 33.9 25.5 91 1.1 CALM 0 0 0 0 1010.4 1010.2 0.2
03/09:30pm 27.2 33.8 25.2 89 1.4 CALM 0 0 0 0 1010.2 1010.0 0.2
03/09:00pm 27.4 33.6 25.2 88 1.5 SW 2 4 1 2 1010.1 1009.9 0.2
03/08:30pm 27.6 33.4 25.2 87 1.7 SW 4 4 2 2 1009.7 1009.5 0.2
03/08:00pm 28.0 33.9 25.4 86 1.8 W 4 6 2 3 1009.3 1009.1 0.2
03/07:30pm 28.4 34.6 25.2 83 2.2 W 2 4 1 2 1008.9 1008.7 0.2
03/07:00pm 28.8 34.0 24.8 79 2.8 W 6 9 3 5 1008.5 1008.3 0.2
03/06:30pm 29.3 34.5 24.8 77 3.2 WNW 6 9 3 5 1008.2 1008.0 0.2
03/06:00pm 29.9 35.3 25.4 77 3.2 WNW 7 11 4 6 1008.1 1007.9 0.2
03/05:30pm 30.0 35.3 24.9 74 3.6 NW 6 9 3 5 1007.8 1007.6 0.2
03/05:00pm 30.4 35.4 24.5 70 4.1 WNW 6 7 3 4 1007.9 1007.7 0.2
03/04:30pm 30.7 35.6 24.4 69 4.4 NW 6 11 3 6 1007.6 1007.4 0.2
03/04:00pm 31.1 36.0 24.7 68 4.5 WNW 7 13 4 7 1007.6 1007.4 0.2
03/03:30pm 31.4 35.8 24.5 67 4.8 NW 9 15 5 8 1007.3 1007.1 0.2
03/03:00pm 33.5 36.3 21.6 49 8.1 N 9 17 5 9 1007.5 1007.3 0.2
03/02:30pm 33.4 36.7 21.9 51 7.8 NNE 7 13 4 7 1007.7 1007.5 0.2
03/02:00pm 33.1 37.8 23.4 56 6.7 WNW 4 7 2 4 1008.1 1007.9 0.2
03/01:30pm 32.5 37.7 24.8 64 5.4 SSW 6 9 3 5 1008.4 1008.2 0.2
03/01:00pm 31.4 36.7 25.0 69 4.5 SW 6 11 3 6 1008.7 1008.5 0.2
03/12:30pm 31.0 36.1 24.6 68 4.5 SSE 6 9 3 5 1009.2 1009.0 0.2
03/12:00pm 31.3 36.0 23.9 64 5.1 NE 6 9 3 5 1009.7 1009.5 0.2
03/11:30am 32.4 37.0 24.7 64 5.4 N 9 17 5 9 1009.9 1009.7 0.2
03/11:00am 31.7 36.7 24.8 67 4.9 NE 7 13 4 7 1010.1 1009.9 0.2
03/10:30am 31.3 36.8 25.6 71 4.0 NE 7 13 4 7 1010.2 1010.0 0.2
03/10:00am 30.1 36.0 25.4 76 3.3 NE 4 6 2 3 1010.6 1010.4 0.2
03/09:30am 29.7 34.8 25.0 76 3.3 E 7 9 4 5 1010.9 1010.7 0.0
03/09:00am 29.4 35.1 25.6 80 2.7 ENE 6 9 3 5 1010.5 1010.3 1.6
03/08:30am 28.6 34.4 26.0 86 1.8 E 7 11 4 6 1010.2 1010.0 1.6
03/08:00am 26.9 32.8 25.9 94 0.7 SE 6 7 3 4 1010.2 1010.0 1.6
03/07:30am 26.4 32.0 25.5 95 0.6 SE 6 7 3 4 1010.0 1009.8 1.6
03/07:00am 25.9 31.2 25.0 95 0.6 SE 6 6 3 3 1009.4 1009.2 1.6
03/06:30am 25.6 31.1 24.7 95 0.6 SE 4 6 2 3 1009.1 1008.9 1.6
03/06:00am 25.4 30.7 24.4 94 0.7 E 4 6 2 3 1008.5 1008.3 1.6
03/05:30am 25.5 30.9 24.5 94 0.7 NE 4 4 2 2 1008.2 1008.0 1.6
03/05:00am 25.9 32.3 24.9 94 0.7 CALM 0 0 0 0 1008.3 1008.1 1.6
03/04:30am 26.1 32.1 24.9 93 0.8 NE 2 7 1 4 1008.3 1008.1 1.6
03/04:00am 26.2 32.0 25.2 94 0.7 SE 4 6 2 3 1008.2 1008.0 0.0
03/03:30am 26.1 32.2 25.1 94 0.7 ESE 2 4 1 2 1007.9 1007.7 0.0
03/03:00am 26.0 31.7 25.0 94 0.7 SE 4 4 2 2 1008.2 1008.0 0.0
03/02:30am 26.1 32.6 25.1 94 0.7 CALM 0 2 0 1 1008.0 1007.8 0.0
03/02:00am 25.8 31.9 24.4 92 1.0 CALM 0 0 0 0 1008.0 1007.8 0.0
03/01:30am 26.5 32.9 24.9 91 1.1 CALM 0 0 0 0 1008.7 1008.5 0.0
03/01:00am 26.7 33.2 25.1 91 1.1 CALM 0 0 0 0 1008.9 1008.7 0.0
03/12:30am 26.9 33.4 25.1 90 1.3 CALM 0 0 0 0 1009.1 1008.9 0.0
03/12:00am 27.2 32.7 24.7 86 1.7 E 4 4 2 2 1009.4 1009.2 0.0
 
Date/Time
CST
Temp
°C
App
Temp
°C
Dew
Point
°C
Rel
Hum
%
Delta-T
°C
Wind Press
QNH
hPa
Press
MSL
hPa
Rain since
9am
mm
Dir  Spd
km/h
Gust
km/h
Spd
kts
Gust
kts
02/11:30pm 27.0 32.4 24.5 86 1.7 ENE 4 6 2 3 1009.0 1008.8 0.0
02/11:00pm 27.2 33.1 24.7 86 1.7 NNE 2 4 1 2 1009.2 1009.0 0.0
02/10:30pm 27.4 33.7 24.8 86 1.8 CALM 0 2 0 1 1009.3 1009.1 0.0
02/10:00pm 27.7 34.0 24.7 84 2.1 CALM 0 2 0 1 1009.2 1009.0 0.0
02/09:30pm 28.0 33.7 24.4 81 2.5 ENE 2 6 1 3 1009.0 1008.8 0.0
02/09:00pm 28.5 34.8 24.7 80 2.7 CALM 0 0 0 0 1008.6 1008.4 0.0
02/08:30pm 29.1 34.9 24.0 74 3.5 CALM 0 0 0 0 1008.3 1008.1 0.0
02/08:00pm 29.4 34.3 23.6 71 4.0 NE 4 6 2 3 1007.8 1007.6 0.0
02/07:30pm 29.9 34.2 23.3 67 4.5 NE 6 11 3 6 1007.1 1006.9 0.0
02/07:00pm 30.7 34.9 23.1 64 5.2 NE 6 9 3 5 1006.7 1006.5 0.0
02/06:30pm 31.2 35.1 23.6 64 5.3 NE 9 13 5 7 1006.5 1006.3 0.0
02/06:00pm 31.4 35.4 23.8 64 5.3 NE 9 17 5 9 1006.2 1006.0 0.0
02/05:30pm 32.0 35.6 23.8 62 5.7 NE 11 17 6 9 1005.9 1005.7 0.0
02/05:00pm 33.1 36.7 23.7 57 6.5 NE 11 17 6 9 1005.8 1005.6 0.0
02/04:30pm 33.9 37.8 23.0 53 7.6 NE 7 13 4 7 1006.0 1005.8 0.0
02/04:00pm 34.2 37.7 21.9 48 8.4 NNE 6 11 3 6 1006.4 1006.2 0.0
02/03:30pm 34.5 37.8 21.9 48 8.6 NE 7 9 4 5 1006.6 1006.4 0.0
02/03:00pm 34.4 38.8 22.8 51 8.0 ENE 4 6 2 3 1006.6 1006.4 0.0
02/02:30pm 33.6 37.1 22.1 51 7.9 E 7 11 4 6 1006.9 1006.7 0.0
02/02:00pm 33.9 37.1 21.7 49 8.3 NE 7 11 4 6 1007.2 1007.0 0.0
02/01:30pm 33.1 36.4 21.9 51 7.6 NE 7 15 4 8 1007.6 1007.4 0.0
02/01:00pm 33.1 36.9 22.8 54 7.1 NNE 7 17 4 9 1008.0 1007.8 0.0
02/12:30pm 32.4 35.9 22.8 57 6.6 NE 9 15 5 8 1008.4 1008.2 0.0
02/12:00pm 31.9 35.3 22.0 55 6.7 NNE 7 13 4 7 1008.9 1008.7 0.0
02/11:30am 31.8 34.7 22.5 58 6.4 NE 11 19 6 10 1009.5 1009.3 0.0
02/11:00am 31.3 34.6 22.6 60 5.9 NNE 9 15 5 8 1009.9 1009.7 0.0
02/10:30am 31.1 35.3 23.5 64 5.3 ENE 7 19 4 10 1010.3 1010.1 0.0
02/10:00am 29.6 32.9 22.6 66 4.8 E 9 13 5 7 1009.9 1009.7 0.0
02/09:30am 29.3 32.6 22.5 67 4.6 ESE 9 13 5 7 1010.0 1009.8 0.0
02/09:00am 28.4 32.1 22.6 71 3.9 E 7 13 4 7 1009.4 1009.2 1.2
02/08:30am 27.1 30.7 22.3 75 3.2 ENE 7 15 4 8 1009.6 1009.4 1.2
02/08:00am 26.4 29.0 22.0 77 2.9 ENE 11 17 6 9 1009.3 1009.1 1.2
02/07:30am 25.6 29.2 22.3 82 2.2 ENE 7 13 4 7 1009.6 1009.4 1.2
02/07:00am 25.0 28.2 22.3 85 1.8 ENE 9 17 5 9 1009.6 1009.4 1.2
02/06:30am 24.7 28.3 22.4 87 1.5 ENE 7 11 4 6 1009.4 1009.2 1.2
02/06:00am 24.9 28.7 22.4 86 1.7 E 6 9 3 5 1009.1 1008.9 1.2
02/05:30am 25.2 27.9 22.1 83 2.1 ESE 11 17 6 9 1008.6 1008.4 1.2
02/05:00am 25.1 27.7 22.0 83 2.1 SE 11 15 6 8 1008.2 1008.0 1.2
02/04:30am 24.8 28.3 22.1 85 1.8 SE 7 9 4 5 1007.8 1007.6 1.2
02/04:00am 24.7 28.1 22.0 85 1.8 SE 7 11 4 6 1007.8 1007.6 1.2
02/03:30am 24.7 28.3 22.0 85 1.8 SE 6 9 3 5 1007.7 1007.5 1.2
02/03:00am 24.8 28.5 22.5 87 1.5 SE 7 11 4 6 1007.6 1007.4 1.2
02/02:30am 25.1 29.9 23.5 91 1.1 SE 4 6 2 3 1008.0 1007.8 1.2
02/02:00am 25.1 29.3 23.5 91 1.1 SSE 7 11 4 6 1008.2 1008.0 1.2
02/01:30am 25.1 29.9 24.1 94 0.7 S 6 7 3 4 1008.3 1008.1 1.2
02/01:00am 25.4 30.3 24.4 94 0.7 SSE 6 9 3 5 1008.3 1008.1 1.2
02/12:30am 25.5 31.6 24.5 94 0.7 CALM 0 2 0 1 1008.7 1008.5 1.2
02/12:00am 25.6 30.5 24.6 94 0.7 SSE 7 9 4 5 1009.1 1008.9 1.2
 
Date/Time
CST
Temp
°C
App
Temp
°C
Dew
Point
°C
Rel
Hum
%
Delta-T
°C
Wind Press
QNH
hPa
Press
MSL
hPa
Rain since
9am
mm
Dir  Spd
km/h
Gust
km/h
Spd
kts
Gust
kts
01/11:30pm 25.8 31.6 24.6 93 0.8 ESE 2 4 1 2 1009.0 1008.8 1.2
01/11:00pm 25.7 31.1 24.5 93 0.8 SSE 4 6 2 3 1008.7 1008.5 1.2
01/10:30pm 25.7 31.3 24.3 92 1.0 N 2 6 1 3 1008.5 1008.3 1.2
01/10:00pm 26.0 31.3 24.4 91 1.1 NNE 4 6 2 3 1008.0 1007.8 1.2
01/09:30pm 26.1 31.7 24.3 90 1.2 SW 2 6 1 3 1007.2 1007.0 1.2
01/09:00pm 25.8 31.2 23.8 89 1.4 NNW 2 6 1 3 1006.7 1006.5 1.2
01/08:30pm 26.1 31.8 23.8 87 1.6 CALM 0 4 0 2 1006.6 1006.4 1.2
01/08:00pm 26.4 32.3 24.1 87 1.6 CALM 0 0 0 0 1006.4 1006.2 1.2
01/07:30pm 26.3 30.0 23.2 83 2.1 SSE 9 13 5 7 1006.7 1006.5 1.2
01/07:00pm 27.5 29.1 21.5 70 4.0 SSE 15 30 8 16 1006.8 1006.6 1.2
01/06:30pm 32.5 38.0 24.0 61 5.9 NW 2 6 1 3 1005.8 1005.6 1.2
01/06:00pm 32.9 37.3 23.8 58 6.4 NNW 7 13 4 7 1005.1 1004.9 1.2

Latest Capital City Observations: Canberra | Sydney | Melbourne | Brisbane | Adelaide | Perth | Hobart | Darwin

Other Formats:

Comma delimited format used in spreadsheet applications
http://www.bom.gov.au/fwo/IDD60901/IDD60901.94105.axf

JavaScript Object Notation format (JSON) in row-major order
http://www.bom.gov.au/fwo/IDD60901/IDD60901.94105.json